Time,TemperatureF,DewpointF,PressureIn,WindDirection,WindDirectionDegrees,WindSpeedMPH,WindSpeedGustMPH,Humidity,HourlyPrecipIn,Conditions,Clouds,dailyrainin,SoftwareType,DateUTC
2013-03-14 00:00:00,51.7,50.9,30.11,SE,133,1.0,4.0,97,0.00,,---,0.00,VWS V14.01,2013-03-14 07:00:00,
2013-03-14 00:05:00,51.6,50.8,30.10,SE,124,0.0,2.0,97,0.00,,---,0.00,VWS V14.01,2013-03-14 07:05:00,
2013-03-14 00:10:00,51.7,50.9,30.10,SE,131,0.0,2.0,97,0.00,,---,0.00,VWS V14.01,2013-03-14 07:10:00,
2013-03-14 00:15:00,51.7,50.9,30.10,SE,131,0.0,2.0,97,0.00,,---,0.00,VWS V14.01,2013-03-14 07:15:00,
2013-03-14 00:20:00,51.5,50.7,30.10,SE,129,1.0,2.0,97,0.00,,---,0.00,VWS V14.01,2013-03-14 07:20:00,
2013-03-14 00:25:00,51.4,50.6,30.10,East,97,0.0,2.0,97,0.00,,---,0.00,VWS V14.01,2013-03-14 07:25:00,
2013-03-14 00:30:00,51.4,50.6,30.10,East,97,1.0,2.0,97,0.00,,---,0.00,VWS V14.01,2013-03-14 07:30:00,
2013-03-14 00:35:00,51.4,50.6,30.10,East,96,0.0,2.0,97,0.00,,---,0.00,VWS V14.01,2013-03-14 07:35:00,
2013-03-14 00:40:00,51.7,51.2,30.10,East,99,0.0,2.0,98,0.00,,---,0.00,VWS V14.01,2013-03-14 07:40:00,
2013-03-14 00:45:00,51.6,51.1,30.10,SSE,154,0.0,2.0,98,0.00,,---,0.00,VWS V14.01,2013-03-14 07:45:00,
2013-03-14 00:50:00,51.6,51.1,30.10,SSE,153,0.0,2.0,98,0.00,,---,0.00,VWS V14.01,2013-03-14 07:50:00,
2013-03-14 00:55:00,51.6,51.1,30.10,SSE,153,0.0,2.0,98,0.00,,---,0.00,VWS V14.01,2013-03-14 07:55:00,
2013-03-14 01:00:00,51.5,50.7,30.10,SW,236,0.0,2.0,97,0.00,,---,0.00,VWS V14.01,2013-03-14 08:00:00,
2013-03-14 01:05:00,51.6,51.1,30.10,WSW,240,0.0,1.0,98,0.00,,---,0.00,VWS V14.01,2013-03-14 08:05:00,
2013-03-14 01:10:00,51.6,51.1,30.10,WSW,246,0.0,1.0,98,0.00,,---,0.00,VWS V14.01,2013-03-14 08:10:00,
2013-03-14 01:15:00,51.5,51.0,30.10,WSW,246,0.0,1.0,98,0.00,,---,0.00,VWS V14.01,2013-03-14 08:15:00,
2013-03-14 01:20:00,51.5,51.0,30.10,WSW,246,0.0,1.0,98,0.00,,---,0.00,VWS V14.01,2013-03-14 08:20:00,
2013-03-14 01:25:00,51.3,50.8,30.10,SE,124,1.0,2.0,98,0.00,,---,0.00,VWS V14.01,2013-03-14 08:25:00,
2013-03-14 01:30:00,51.1,50.3,30.10,ESE,110,0.0,2.0,97,0.00,,---,0.00,VWS V14.01,2013-03-14 08:30:00,
2013-03-14 01:35:00,51.0,50.5,30.10,SW,226,0.0,2.0,98,0.00,,---,0.00,VWS V14.01,2013-03-14 08:35:00,
2013-03-14 01:40:00,51.0,50.5,30.10,SW,233,0.0,2.0,98,0.00,,---,0.00,VWS V14.01,2013-03-14 08:40:00,
2013-03-14 01:45:00,50.8,50.3,30.10,SW,226,1.0,2.0,98,0.00,,---,0.00,VWS V14.01,2013-03-14 08:45:00,
2013-03-14 01:50:00,50.6,49.8,30.10,SE,129,2.0,2.0,97,0.00,,---,0.00,VWS V14.01,2013-03-14 08:50:00,
2013-03-14 01:55:00,50.3,49.8,30.10,SE,127,1.0,2.0,98,0.00,,---,0.00,VWS V14.01,2013-03-14 08:55:00,
2013-03-14 02:00:00,50.1,49.6,30.10,SSW,208,0.0,2.0,98,0.00,,---,0.00,VWS V14.01,2013-03-14 09:00:00,
2013-03-14 02:05:00,49.9,49.4,30.10,SW,219,1.0,1.0,98,0.00,,---,0.00,VWS V14.01,2013-03-14 09:05:00,
2013-03-14 02:10:00,50.0,49.5,30.10,WSW,249,0.0,1.0,98,0.00,,---,0.00,VWS V14.01,2013-03-14 09:10:00,
2013-03-14 02:15:00,50.1,49.6,30.10,WSW,249,0.0,1.0,98,0.00,,---,0.00,VWS V14.01,2013-03-14 09:15:00,
2013-03-14 02:20:00,50.4,50.1,30.11,WSW,248,0.0,1.0,99,0.00,,---,0.00,VWS V14.01,2013-03-14 09:20:00,
2013-03-14 02:25:00,50.5,50.0,30.10,SSW,212,0.0,2.0,98,0.00,,---,0.00,VWS V14.01,2013-03-14 09:25:00,
2013-03-14 02:30:00,50.3,49.8,30.10,SSW,204,0.0,2.0,98,0.00,,---,0.00,VWS V14.01,2013-03-14 09:30:00,
2013-03-14 02:35:00,50.3,49.8,30.10,SSW,208,0.0,2.0,98,0.00,,---,0.00,VWS V14.01,2013-03-14 09:35:00,
2013-03-14 02:40:00,50.3,49.8,30.10,SW,219,0.0,2.0,98,0.00,,---,0.00,VWS V14.01,2013-03-14 09:40:00,
2013-03-14 02:45:00,50.1,49.6,30.10,SW,219,0.0,2.0,98,0.00,,---,0.00,VWS V14.01,2013-03-14 09:45:00,
2013-03-14 02:50:00,50.2,49.7,30.10,SW,229,0.0,2.0,98,0.00,,---,0.00,VWS V14.01,2013-03-14 09:50:00,
2013-03-14 02:55:00,50.2,49.7,30.10,WSW,254,0.0,2.0,98,0.00,,---,0.00,VWS V14.01,2013-03-14 09:55:00,
2013-03-14 03:00:00,50.4,50.1,30.10,WSW,253,0.0,2.0,99,0.00,,---,0.00,VWS V14.01,2013-03-14 10:00:00,
2013-03-14 03:05:00,50.4,49.9,30.10,ESE,113,1.0,1.0,98,0.00,,---,0.00,VWS V14.01,2013-03-14 10:05:00,
2013-03-14 03:10:00,50.5,50.2,30.09,ESE,122,0.0,1.0,99,0.00,,---,0.00,VWS V14.01,2013-03-14 10:10:00,
2013-03-14 03:15:00,50.4,49.9,30.09,ESE,122,0.0,1.0,98,0.00,,---,0.00,VWS V14.01,2013-03-14 10:15:00,
2013-03-14 03:20:00,50.3,49.8,30.09,SW,226,0.0,1.0,98,0.00,,---,0.00,VWS V14.01,2013-03-14 10:20:00,
2013-03-14 03:25:00,50.2,49.7,30.08,SW,226,0.0,1.0,98,0.00,,---,0.00,VWS V14.01,2013-03-14 10:25:00,
2013-03-14 03:30:00,50.3,50.0,30.09,SW,224,0.0,1.0,99,0.00,,---,0.00,VWS V14.01,2013-03-14 10:30:00,
2013-03-14 03:35:00,50.4,50.1,30.08,SW,224,0.0,1.0,99,0.00,,---,0.00,VWS V14.01,2013-03-14 10:35:00,
2013-03-14 03:40:00,50.4,50.1,30.08,SW,224,0.0,1.0,99,0.00,,---,0.00,VWS V14.01,2013-03-14 10:40:00,
2013-03-14 03:45:00,50.4,50.1,30.09,SW,226,0.0,1.0,99,0.00,,---,0.00,VWS V14.01,2013-03-14 10:45:00,
2013-03-14 03:50:00,50.2,49.7,30.08,SW,226,0.0,1.0,98,0.00,,---,0.00,VWS V14.01,2013-03-14 10:50:00,
2013-03-14 03:55:00,50.3,50.0,30.08,SW,236,0.0,1.0,99,0.00,,---,0.00,VWS V14.01,2013-03-14 10:55:00,
2013-03-14 04:00:00,50.3,50.0,30.08,SW,236,0.0,1.0,99,0.00,,---,0.00,VWS V14.01,2013-03-14 11:00:00,
2013-03-14 04:05:00,50.4,50.1,30.08,WSW,249,1.0,1.0,99,0.00,,---,0.00,VWS V14.01,2013-03-14 11:05:00,
2013-03-14 04:10:00,50.3,49.8,30.08,West,277,0.0,1.0,98,0.00,,---,0.00,VWS V14.01,2013-03-14 11:10:00,
2013-03-14 04:15:00,50.0,49.5,30.08,West,276,0.0,1.0,98,0.00,,---,0.00,VWS V14.01,2013-03-14 11:15:00,
2013-03-14 04:20:00,50.1,49.8,30.08,West,276,0.0,1.0,99,0.00,,---,0.00,VWS V14.01,2013-03-14 11:20:00,
2013-03-14 04:25:00,50.2,49.9,30.08,West,277,0.0,1.0,99,0.00,,---,0.00,VWS V14.01,2013-03-14 11:25:00,
2013-03-14 04:30:00,50.2,49.9,30.08,West,276,0.0,1.0,99,0.00,,---,0.00,VWS V14.01,2013-03-14 11:30:00,
2013-03-14 04:35:00,50.3,50.0,30.08,WSW,243,0.0,1.0,99,0.00,,---,0.00,VWS V14.01,2013-03-14 11:35:00,
2013-03-14 04:40:00,50.2,49.9,30.07,WSW,248,0.0,1.0,99,0.00,,---,0.00,VWS V14.01,2013-03-14 11:40:00,
2013-03-14 04:45:00,50.2,49.9,30.07,West,276,0.0,1.0,99,0.00,,---,0.00,VWS V14.01,2013-03-14 11:45:00,
2013-03-14 04:50:00,50.3,50.0,30.07,West,276,0.0,1.0,99,0.00,,---,0.00,VWS V14.01,2013-03-14 11:50:00,
2013-03-14 04:55:00,50.6,50.3,30.07,West,265,0.0,1.0,99,0.00,,---,0.00,VWS V14.01,2013-03-14 11:55:00,
2013-03-14 05:00:00,50.8,50.5,30.07,West,265,0.0,1.0,99,0.00,,---,0.00,VWS V14.01,2013-03-14 12:00:00,
2013-03-14 05:05:00,50.9,50.6,30.07,West,265,0.0,1.0,99,0.00,,---,0.00,VWS V14.01,2013-03-14 12:05:00,
2013-03-14 05:09:00,50.9,50.6,30.07,WNW,298,0.0,1.0,99,0.00,,---,0.00,VWS V14.01,2013-03-14 12:09:00,
2013-03-14 05:15:00,50.8,50.5,30.08,WNW,298,0.0,1.0,99,0.00,,---,0.00,VWS V14.01,2013-03-14 12:15:00,
2013-03-14 05:20:00,50.6,50.3,30.08,WNW,293,0.0,1.0,99,0.00,,---,0.00,VWS V14.01,2013-03-14 12:20:00,
2013-03-14 05:24:00,50.6,50.3,30.07,West,278,0.0,1.0,99,0.00,,---,0.00,VWS V14.01,2013-03-14 12:24:00,
2013-03-14 05:29:00,50.5,50.2,30.07,West,278,0.0,1.0,99,0.00,,---,0.00,VWS V14.01,2013-03-14 12:29:00,
2013-03-14 05:34:00,50.3,49.8,30.08,West,281,0.0,1.0,98,0.00,,---,0.00,VWS V14.01,2013-03-14 12:34:00,
2013-03-14 05:40:00,50.2,49.9,30.08,NNW,327,0.0,1.0,99,0.00,,---,0.00,VWS V14.01,2013-03-14 12:40:00,
2013-03-14 05:45:00,50.3,50.0,30.08,NNW,333,0.0,1.0,99,0.00,,---,0.00,VWS V14.01,2013-03-14 12:45:00,
2013-03-14 05:50:00,50.1,49.8,30.08,NNW,344,0.0,1.0,99,0.00,,---,0.00,VWS V14.01,2013-03-14 12:50:00,
2013-03-14 05:55:00,50.0,49.7,30.08,NE,54,0.0,1.0,99,0.00,,---,0.00,VWS V14.01,2013-03-14 12:55:00,
2013-03-14 06:00:00,50.0,49.7,30.08,NE,54,0.0,1.0,99,0.00,,---,0.00,VWS V14.01,2013-03-14 13:00:00,
2013-03-14 06:04:00,50.0,49.7,30.08,NE,54,0.0,1.0,99,0.00,,---,0.00,VWS V14.01,2013-03-14 13:04:00,
2013-03-14 06:09:00,50.0,49.7,30.07,East,81,0.0,1.0,99,0.00,,---,0.00,VWS V14.01,2013-03-14 13:09:00,
2013-03-14 06:14:00,49.8,49.5,30.08,SW,225,0.0,1.0,99,0.00,,---,0.00,VWS V14.01,2013-03-14 13:14:00,
2013-03-14 06:19:00,49.5,49.0,30.07,WSW,253,0.0,1.0,98,0.00,,---,0.00,VWS V14.01,2013-03-14 13:19:00,
2013-03-14 06:24:00,49.5,49.2,30.08,WSW,253,0.0,1.0,99,0.00,,---,0.00,VWS V14.01,2013-03-14 13:24:00,
2013-03-14 06:29:00,49.7,49.4,30.08,WSW,243,0.0,1.0,99,0.00,,---,0.00,VWS V14.01,2013-03-14 13:29:00,
2013-03-14 06:34:00,49.7,49.4,30.08,South,188,0.0,1.0,99,0.00,,---,0.00,VWS V14.01,2013-03-14 13:34:00,
2013-03-14 06:39:00,49.7,49.4,30.08,SW,221,0.0,1.0,99,0.00,,---,0.00,VWS V14.01,2013-03-14 13:39:00,
2013-03-14 06:44:00,49.7,49.4,30.08,SW,221,0.0,1.0,99,0.00,,---,0.00,VWS V14.01,2013-03-14 13:44:00,
2013-03-14 06:49:00,49.7,49.4,30.08,SW,221,0.0,1.0,99,0.00,,---,0.00,VWS V14.01,2013-03-14 13:49:00,
2013-03-14 06:54:00,49.6,49.3,30.08,SW,221,0.0,1.0,99,0.00,,---,0.00,VWS V14.01,2013-03-14 13:54:00,
2013-03-14 06:59:00,49.7,49.4,30.08,SW,221,0.0,1.0,99,0.00,,---,0.00,VWS V14.01,2013-03-14 13:59:00,
2013-03-14 07:04:00,49.6,49.3,30.08,SW,228,0.0,2.0,99,0.00,,---,0.00,VWS V14.01,2013-03-14 14:04:00,
2013-03-14 07:09:00,49.6,49.3,30.08,SE,126,0.0,2.0,99,0.00,,---,0.00,VWS V14.01,2013-03-14 14:09:00,
2013-03-14 07:14:00,49.7,49.4,30.08,SE,126,0.0,2.0,99,0.00,,---,0.00,VWS V14.01,2013-03-14 14:14:00,
2013-03-14 07:19:00,50.0,49.7,30.08,NE,56,3.0,4.0,99,0.00,,---,0.00,VWS V14.01,2013-03-14 14:19:00,
2013-03-14 07:24:00,50.3,50.0,30.08,ENE,58,1.0,4.0,99,0.00,,---,0.00,VWS V14.01,2013-03-14 14:24:00,
2013-03-14 07:29:00,50.5,50.5,30.09,NE,53,1.0,4.0,100,0.00,,---,0.00,VWS V14.01,2013-03-14 14:29:00,
2013-03-14 07:34:00,50.5,50.2,30.09,ENE,57,0.0,4.0,99,0.00,,---,0.00,VWS V14.01,2013-03-14 14:34:00,
2013-03-14 07:39:00,50.3,50.0,30.09,WNW,283,0.0,4.0,99,0.00,,---,0.00,VWS V14.01,2013-03-14 14:39:00,
2013-03-14 07:44:00,50.1,49.8,30.09,North,354,1.0,4.0,99,0.00,,---,0.00,VWS V14.01,2013-03-14 14:44:00,
2013-03-14 07:49:00,50.2,49.9,30.09,North,8,0.0,4.0,99,0.00,,---,0.00,VWS V14.01,2013-03-14 14:49:00,
2013-03-14 07:54:00,50.6,50.3,30.09,NE,44,1.0,4.0,99,0.00,,---,0.00,VWS V14.01,2013-03-14 14:54:00,
2013-03-14 07:59:00,50.8,50.8,30.09,North,358,1.0,4.0,100,0.00,,---,0.00,VWS V14.01,2013-03-14 14:59:00,
2013-03-14 08:04:00,50.9,50.6,30.09,NE,41,1.0,2.0,99,0.00,,---,0.00,VWS V14.01,2013-03-14 15:04:00,
2013-03-14 08:09:00,51.1,50.8,30.09,NW,316,1.0,2.0,99,0.00,,---,0.00,VWS V14.01,2013-03-14 15:09:00,
2013-03-14 08:14:00,51.2,50.9,30.09,NNE,15,0.0,2.0,99,0.00,,---,0.00,VWS V14.01,2013-03-14 15:14:00,
2013-03-14 08:19:00,51.1,50.8,30.09,NW,318,0.0,2.0,99,0.00,,---,0.00,VWS V14.01,2013-03-14 15:19:00,
2013-03-14 08:24:00,51.4,51.1,30.09,South,169,1.0,2.0,99,0.00,,---,0.00,VWS V14.01,2013-03-14 15:24:00,
2013-03-14 08:29:00,51.2,50.9,30.10,WSW,243,2.0,3.0,99,0.00,,---,0.00,VWS V14.01,2013-03-14 15:29:00,
2013-03-14 08:34:00,51.3,51.0,30.10,SW,226,0.0,3.0,99,0.00,,---,0.00,VWS V14.01,2013-03-14 15:34:00,
2013-03-14 08:39:00,51.7,51.4,30.10,SW,229,0.0,3.0,99,0.00,,---,0.00,VWS V14.01,2013-03-14 15:39:00,
2013-03-14 08:44:00,52.2,52.2,30.10,SE,141,0.0,3.0,100,0.00,,---,0.00,VWS V14.01,2013-03-14 15:44:00,
2013-03-14 08:49:00,52.5,52.2,30.10,SE,139,1.0,3.0,99,0.00,,---,0.00,VWS V14.01,2013-03-14 15:49:00,
2013-03-14 08:54:00,52.8,52.5,30.10,SE,138,0.0,3.0,99,0.00,,---,0.00,VWS V14.01,2013-03-14 15:54:00,
2013-03-14 08:59:00,53.0,52.7,30.09,SE,143,0.0,3.0,99,0.00,,---,0.00,VWS V14.01,2013-03-14 15:59:00,
2013-03-14 09:04:00,52.9,52.6,30.09,SE,133,0.0,3.0,99,0.00,,---,0.00,VWS V14.01,2013-03-14 16:04:00,
2013-03-14 09:09:00,53.3,53.0,30.10,ESE,103,0.0,3.0,99,0.00,,---,0.00,VWS V14.01,2013-03-14 16:09:00,
2013-03-14 09:14:00,53.7,53.4,30.10,ENE,72,0.0,3.0,99,0.00,,---,0.00,VWS V14.01,2013-03-14 16:14:00,
2013-03-14 09:19:00,54.1,53.8,30.09,SW,215,0.0,3.0,99,0.00,,---,0.00,VWS V14.01,2013-03-14 16:19:00,
2013-03-14 09:24:00,54.5,54.2,30.09,SE,124,0.0,3.0,99,0.00,,---,0.00,VWS V14.01,2013-03-14 16:24:00,
2013-03-14 09:29:00,54.4,53.8,30.09,ESE,105,0.0,3.0,98,0.00,,---,0.00,VWS V14.01,2013-03-14 16:29:00,
2013-03-14 09:34:00,55.2,54.9,30.10,SE,143,1.0,3.0,99,0.00,,---,0.00,VWS V14.01,2013-03-14 16:34:00,
2013-03-14 09:39:00,56.5,56.5,30.10,SE,143,2.0,3.0,100,0.00,,---,0.00,VWS V14.01,2013-03-14 16:39:00,
2013-03-14 09:44:00,56.8,56.5,30.10,SE,140,1.0,3.0,99,0.00,,---,0.00,VWS V14.01,2013-03-14 16:44:00,
2013-03-14 09:49:00,57.5,57.2,30.09,ESE,117,0.0,3.0,99,0.00,,---,0.00,VWS V14.01,2013-03-14 16:49:00,
2013-03-14 09:54:00,58.2,57.6,30.10,SSE,167,0.0,3.0,98,0.00,,---,0.00,VWS V14.01,2013-03-14 16:54:00,
2013-03-14 09:59:00,59.1,58.5,30.10,South,170,1.0,3.0,98,0.00,,---,0.00,VWS V14.01,2013-03-14 16:59:00,
2013-03-14 10:04:00,60.4,59.3,30.10,SSE,149,0.0,3.0,96,0.00,,---,0.00,VWS V14.01,2013-03-14 17:04:00,
2013-03-14 10:09:00,62.4,60.0,30.09,South,170,0.0,3.0,92,0.00,,---,0.00,VWS V14.01,2013-03-14 17:09:00,
2013-03-14 10:14:00,63.9,60.3,30.09,SE,137,1.0,3.0,88,0.00,,---,0.00,VWS V14.01,2013-03-14 17:14:00,
2013-03-14 10:19:00,65.4,59.8,30.09,SW,229,2.0,4.0,82,0.00,,---,0.00,VWS V14.01,2013-03-14 17:19:00,
2013-03-14 10:24:00,66.6,59.9,30.09,South,183,2.0,4.0,79,0.00,,---,0.00,VWS V14.01,2013-03-14 17:24:00,
2013-03-14 10:29:00,67.6,60.1,30.09,SSE,152,1.0,4.0,77,0.00,,---,0.00,VWS V14.01,2013-03-14 17:29:00,
2013-03-14 10:34:00,68.7,58.9,30.09,WSW,242,1.0,4.0,71,0.00,,---,0.00,VWS V14.01,2013-03-14 17:34:00,
2013-03-14 10:39:00,69.3,58.7,30.09,SSE,164,2.0,4.0,69,0.00,,---,0.00,VWS V14.01,2013-03-14 17:39:00,
2013-03-14 10:44:00,70.8,57.6,30.09,West,262,0.0,4.0,63,0.00,,---,0.00,VWS V14.01,2013-03-14 17:44:00,
2013-03-14 10:49:00,71.4,58.2,30.09,South,172,0.0,4.0,63,0.00,,---,0.00,VWS V14.01,2013-03-14 17:49:00,
2013-03-14 10:54:00,72.5,58.3,30.09,SSE,158,0.0,4.0,61,0.00,,---,0.00,VWS V14.01,2013-03-14 17:54:00,
2013-03-14 10:59:00,72.9,59.1,30.09,SSE,155,3.0,4.0,62,0.00,,---,0.00,VWS V14.01,2013-03-14 17:59:00,
2013-03-14 11:04:00,73.3,59.0,30.09,SE,127,1.0,3.0,61,0.00,,---,0.00,VWS V14.01,2013-03-14 18:04:00,
2013-03-14 11:09:00,73.1,53.9,30.09,WSW,256,1.0,3.0,51,0.00,,---,0.00,VWS V14.01,2013-03-14 18:09:00,
2013-03-14 11:14:00,73.2,56.1,30.09,SW,219,0.0,3.0,55,0.00,,---,0.00,VWS V14.01,2013-03-14 18:14:00,
2013-03-14 11:19:00,74.9,57.7,30.09,West,274,1.0,4.0,55,0.00,,---,0.00,VWS V14.01,2013-03-14 18:19:00,
2013-03-14 11:24:00,75.0,57.8,30.08,WNW,298,2.0,4.0,55,0.00,,---,0.00,VWS V14.01,2013-03-14 18:24:00,
2013-03-14 11:29:00,75.4,58.6,30.08,West,274,3.0,4.0,56,0.00,,---,0.00,VWS V14.01,2013-03-14 18:29:00,
2013-03-14 11:34:00,75.5,57.2,30.08,WNW,283,3.0,4.0,53,0.00,,---,0.00,VWS V14.01,2013-03-14 18:34:00,
2013-03-14 11:39:00,75.0,54.6,30.08,WNW,295,3.0,5.0,49,0.00,,---,0.00,VWS V14.01,2013-03-14 18:39:00,
2013-03-14 11:44:00,74.3,51.6,30.08,WNW,287,3.0,6.0,45,0.00,,---,0.00,VWS V14.01,2013-03-14 18:44:00,
2013-03-14 11:49:00,73.7,52.2,30.08,NW,307,3.0,7.0,47,0.00,,---,0.00,VWS V14.01,2013-03-14 18:49:00,
2013-03-14 11:54:00,72.9,52.6,30.08,NW,305,4.0,7.0,49,0.00,,---,0.00,VWS V14.01,2013-03-14 18:54:00,
2013-03-14 11:59:00,73.0,53.8,30.08,WNW,287,4.0,7.0,51,0.00,,---,0.00,VWS V14.01,2013-03-14 18:59:00,
2013-03-14 12:04:00,73.2,53.5,30.08,WNW,291,4.0,6.0,50,0.00,,---,0.00,VWS V14.01,2013-03-14 19:04:00,
2013-03-14 12:09:00,73.5,54.3,30.07,West,271,2.0,6.0,51,0.00,,---,0.00,VWS V14.01,2013-03-14 19:09:00,
2013-03-14 12:14:00,74.0,55.3,30.07,WNW,288,3.0,6.0,52,0.00,,---,0.00,VWS V14.01,2013-03-14 19:14:00,
2013-03-14 12:19:00,74.1,53.7,30.07,WNW,302,4.0,7.0,49,0.00,,---,0.00,VWS V14.01,2013-03-14 19:19:00,
2013-03-14 12:24:00,74.2,53.8,30.07,WNW,284,7.0,8.0,49,0.00,,---,0.00,VWS V14.01,2013-03-14 19:24:00,
2013-03-14 12:29:00,74.2,53.3,30.07,NW,306,4.0,8.0,48,0.00,,---,0.00,VWS V14.01,2013-03-14 19:29:00,
2013-03-14 12:34:00,74.5,53.5,30.07,West,280,8.0,9.0,48,0.00,,---,0.00,VWS V14.01,2013-03-14 19:34:00,
2013-03-14 12:39:00,74.8,51.5,30.06,WNW,287,6.0,9.0,44,0.00,,---,0.00,VWS V14.01,2013-03-14 19:39:00,
2013-03-14 12:44:00,74.9,50.9,30.06,WNW,290,6.0,9.0,43,0.00,,---,0.00,VWS V14.01,2013-03-14 19:44:00,
2013-03-14 12:49:00,75.7,52.9,30.06,NW,305,5.0,9.0,45,0.00,,---,0.00,VWS V14.01,2013-03-14 19:49:00,
2013-03-14 12:54:00,76.2,53.3,30.06,West,280,3.0,9.0,45,0.00,,---,0.00,VWS V14.01,2013-03-14 19:54:00,
2013-03-14 12:59:00,76.9,54.0,30.06,WNW,301,5.0,9.0,45,0.00,,---,0.00,VWS V14.01,2013-03-14 19:59:00,
2013-03-14 13:04:00,77.0,54.1,30.05,West,277,2.0,7.0,45,0.00,,---,0.00,VWS V14.01,2013-03-14 20:04:00,
2013-03-14 13:09:00,77.2,53.6,30.05,WNW,293,4.0,7.0,44,0.00,,---,0.00,VWS V14.01,2013-03-14 20:09:00,
2013-03-14 13:14:00,77.4,53.8,30.05,WNW,283,5.0,7.0,44,0.00,,---,0.00,VWS V14.01,2013-03-14 20:14:00,
2013-03-14 13:19:00,77.4,53.8,30.05,NW,315,5.0,7.0,44,0.00,,---,0.00,VWS V14.01,2013-03-14 20:19:00,
2013-03-14 13:24:00,76.6,53.7,30.05,NW,316,7.0,10.0,45,0.00,,---,0.00,VWS V14.01,2013-03-14 20:24:00,
2013-03-14 13:29:00,75.1,53.5,30.04,WNW,298,6.0,10.0,47,0.00,,---,0.00,VWS V14.01,2013-03-14 20:29:00,
2013-03-14 13:34:00,73.6,54.4,30.04,NW,304,10.0,13.0,51,0.00,,---,0.00,VWS V14.01,2013-03-14 20:34:00,
2013-03-14 13:39:00,72.6,55.0,30.04,West,280,8.0,13.0,54,0.00,,---,0.00,VWS V14.01,2013-03-14 20:39:00,
2013-03-14 13:44:00,71.8,54.8,30.04,NW,316,7.0,13.0,55,0.00,,---,0.00,VWS V14.01,2013-03-14 20:44:00,
2013-03-14 13:49:00,71.5,55.0,30.04,NNW,345,3.0,13.0,56,0.00,,---,0.00,VWS V14.01,2013-03-14 20:49:00,
2013-03-14 13:54:00,71.8,55.3,30.04,WNW,294,7.0,13.0,56,0.00,,---,0.00,VWS V14.01,2013-03-14 20:54:00,
2013-03-14 13:59:00,72.8,56.2,30.04,WNW,291,6.0,13.0,56,0.00,,---,0.00,VWS V14.01,2013-03-14 20:59:00,
2013-03-14 14:04:00,74.2,56.0,30.04,NW,318,6.0,7.0,53,0.00,,---,0.00,VWS V14.01,2013-03-14 21:04:00,
2013-03-14 14:09:00,75.0,56.2,30.03,NW,305,5.0,7.0,52,0.00,,---,0.00,VWS V14.01,2013-03-14 21:09:00,
2013-03-14 14:14:00,76.1,56.1,30.03,NW,309,4.0,7.0,50,0.00,,---,0.00,VWS V14.01,2013-03-14 21:14:00,
2013-03-14 14:19:00,75.7,55.8,30.03,NW,310,9.0,10.0,50,0.00,,---,0.00,VWS V14.01,2013-03-14 21:19:00,
2013-03-14 14:24:00,75.7,56.3,30.03,WNW,297,5.0,10.0,51,0.00,,---,0.00,VWS V14.01,2013-03-14 21:24:00,
2013-03-14 14:29:00,76.7,56.1,30.03,NNW,328,5.0,10.0,49,0.00,,---,0.00,VWS V14.01,2013-03-14 21:29:00,
2013-03-14 14:34:00,77.0,56.4,30.03,NW,304,3.0,10.0,49,0.00,,---,0.00,VWS V14.01,2013-03-14 21:34:00,
2013-03-14 14:39:00,77.5,56.3,30.03,WNW,300,5.0,10.0,48,0.00,,---,0.00,VWS V14.01,2013-03-14 21:39:00,
2013-03-14 14:44:00,77.4,56.2,30.03,WNW,294,4.0,10.0,48,0.00,,---,0.00,VWS V14.01,2013-03-14 21:44:00,
2013-03-14 14:49:00,78.3,57.0,30.03,WNW,284,5.0,10.0,48,0.00,,---,0.00,VWS V14.01,2013-03-14 21:49:00,
2013-03-14 14:54:00,77.4,56.2,30.03,WNW,283,5.0,10.0,48,0.00,,---,0.00,VWS V14.01,2013-03-14 21:54:00,
2013-03-14 14:59:00,76.6,55.5,30.03,NW,307,5.0,10.0,48,0.00,,---,0.00,VWS V14.01,2013-03-14 21:59:00,
2013-03-14 15:04:00,76.5,55.9,30.03,WNW,298,6.0,8.0,49,0.00,,---,0.00,VWS V14.01,2013-03-14 22:04:00,
2013-03-14 15:09:00,75.8,55.9,30.03,WNW,287,5.0,8.0,50,0.00,,---,0.00,VWS V14.01,2013-03-14 22:09:00,
2013-03-14 15:14:00,75.2,55.8,30.03,WNW,300,6.0,10.0,51,0.00,,---,0.00,VWS V14.01,2013-03-14 22:14:00,
2013-03-14 15:19:00,75.0,55.7,30.03,WNW,298,5.0,10.0,51,0.00,,---,0.00,VWS V14.01,2013-03-14 22:19:00,
2013-03-14 15:24:00,74.3,56.1,30.03,NW,314,5.0,10.0,53,0.00,,---,0.00,VWS V14.01,2013-03-14 22:24:00,
2013-03-14 15:29:00,74.5,55.7,30.03,WNW,287,5.0,10.0,52,0.00,,---,0.00,VWS V14.01,2013-03-14 22:29:00,
2013-03-14 15:34:00,75.7,56.3,30.03,WNW,294,5.0,10.0,51,0.00,,---,0.00,VWS V14.01,2013-03-14 22:34:00,
2013-03-14 15:39:00,76.9,56.3,30.03,WNW,287,4.0,10.0,49,0.00,,---,0.00,VWS V14.01,2013-03-14 22:39:00,
2013-03-14 15:44:00,77.3,56.1,30.02,West,280,7.0,10.0,48,0.00,,---,0.00,VWS V14.01,2013-03-14 22:44:00,
2013-03-14 15:49:00,77.7,56.5,30.02,WNW,294,4.0,10.0,48,0.00,,---,0.00,VWS V14.01,2013-03-14 22:49:00,
2013-03-14 15:54:00,77.7,56.5,30.02,WNW,294,8.0,10.0,48,0.00,,---,0.00,VWS V14.01,2013-03-14 22:54:00,
2013-03-14 15:59:00,76.2,56.2,30.02,WNW,300,7.0,10.0,50,0.00,,---,0.00,VWS V14.01,2013-03-14 22:59:00,
2013-03-14 16:04:00,75.6,56.8,30.02,NW,314,7.0,8.0,52,0.00,,---,0.00,VWS V14.01,2013-03-14 23:04:00,
2013-03-14 16:09:00,74.8,56.5,30.02,West,276,6.0,11.0,53,0.00,,---,0.00,VWS V14.01,2013-03-14 23:09:00,
2013-03-14 16:14:00,74.7,56.5,30.02,NW,314,4.0,11.0,53,0.00,,---,0.00,VWS V14.01,2013-03-14 23:14:00,
2013-03-14 16:19:00,75.6,56.8,30.02,West,278,7.0,11.0,52,0.00,,---,0.00,VWS V14.01,2013-03-14 23:19:00,
2013-03-14 16:24:00,76.3,56.9,30.01,WNW,294,4.0,11.0,51,0.00,,---,0.00,VWS V14.01,2013-03-14 23:24:00,
2013-03-14 16:29:00,76.9,56.9,30.02,West,267,4.0,11.0,50,0.00,,---,0.00,VWS V14.01,2013-03-14 23:29:00,
2013-03-14 16:34:00,77.0,56.4,30.01,NW,307,4.0,11.0,49,0.00,,---,0.00,VWS V14.01,2013-03-14 23:34:00,
2013-03-14 16:39:00,77.3,56.7,30.01,NW,315,4.0,11.0,49,0.00,,---,0.00,VWS V14.01,2013-03-14 23:39:00,
2013-03-14 16:44:00,77.5,56.3,30.01,NNW,330,3.0,11.0,48,0.00,,---,0.00,VWS V14.01,2013-03-14 23:44:00,
2013-03-14 16:49:00,78.3,56.4,30.01,WNW,284,1.0,11.0,47,0.00,,---,0.00,VWS V14.01,2013-03-14 23:49:00,
2013-03-14 16:54:00,79.2,56.7,30.01,WSW,252,0.0,11.0,46,0.00,,---,0.00,VWS V14.01,2013-03-14 23:54:00,
2013-03-14 16:59:00,79.2,56.0,30.01,WNW,300,2.0,11.0,45,0.00,,---,0.00,VWS V14.01,2013-03-14 23:59:00,
2013-03-14 17:04:00,78.1,55.7,30.01,WNW,295,3.0,5.0,46,0.00,,---,0.00,VWS V14.01,2013-03-15 00:04:00,
2013-03-14 17:09:00,76.8,55.7,30.01,WNW,293,4.0,6.0,48,0.00,,---,0.00,VWS V14.01,2013-03-15 00:09:00,
2013-03-14 17:14:00,75.5,55.6,30.01,NW,323,4.0,6.0,50,0.00,,---,0.00,VWS V14.01,2013-03-15 00:14:00,
2013-03-14 17:19:00,74.5,55.7,30.01,WNW,284,5.0,7.0,52,0.00,,---,0.00,VWS V14.01,2013-03-15 00:19:00,
2013-03-14 17:24:00,73.7,56.0,30.01,WNW,298,5.0,7.0,54,0.00,,---,0.00,VWS V14.01,2013-03-15 00:24:00,
2013-03-14 17:29:00,73.8,56.1,30.01,WNW,291,3.0,7.0,54,0.00,,---,0.00,VWS V14.01,2013-03-15 00:29:00,
2013-03-14 17:34:00,74.3,56.6,30.01,SW,219,0.0,7.0,54,0.00,,---,0.00,VWS V14.01,2013-03-15 00:34:00,
2013-03-14 17:39:00,75.4,57.1,30.01,East,86,0.0,7.0,53,0.00,,---,0.00,VWS V14.01,2013-03-15 00:39:00,
2013-03-14 17:44:00,77.0,57.0,30.01,NNW,335,1.0,7.0,50,0.00,,---,0.00,VWS V14.01,2013-03-15 00:44:00,
2013-03-14 17:49:00,78.2,56.9,30.01,NE,44,1.0,7.0,48,0.00,,---,0.00,VWS V14.01,2013-03-15 00:49:00,
2013-03-14 17:54:00,76.8,56.8,30.01,SE,131,0.0,7.0,50,0.00,,---,0.00,VWS V14.01,2013-03-15 00:54:00,
2013-03-14 17:59:00,74.9,56.6,30.01,ESE,107,0.0,7.0,53,0.00,,---,0.00,VWS V14.01,2013-03-15 00:59:00,
2013-03-14 18:04:00,74.3,56.6,30.01,ESE,121,0.0,2.0,54,0.00,,---,0.00,VWS V14.01,2013-03-15 01:04:00,
2013-03-14 18:09:00,74.8,57.6,30.01,ESE,121,0.0,2.0,55,0.00,,---,0.00,VWS V14.01,2013-03-15 01:09:00,
2013-03-14 18:14:00,75.9,57.0,30.01,ESE,121,2.0,2.0,52,0.00,,---,0.00,VWS V14.01,2013-03-15 01:14:00,
2013-03-14 18:19:00,73.5,55.9,30.01,NW,312,2.0,5.0,54,0.00,,---,0.00,VWS V14.01,2013-03-15 01:19:00,
2013-03-14 18:24:00,71.7,55.2,30.02,WNW,302,3.0,5.0,56,0.00,,---,0.00,VWS V14.01,2013-03-15 01:24:00,
2013-03-14 18:29:00,69.9,54.9,30.02,West,280,3.0,5.0,59,0.00,,---,0.00,VWS V14.01,2013-03-15 01:29:00,
2013-03-14 18:34:00,68.4,54.4,30.02,WNW,287,0.0,5.0,61,0.00,,---,0.00,VWS V14.01,2013-03-15 01:34:00,
2013-03-14 18:39:00,67.9,54.8,30.02,SE,131,1.0,5.0,63,0.00,,---,0.00,VWS V14.01,2013-03-15 01:39:00,
2013-03-14 18:44:00,67.0,54.9,30.02,SSE,153,0.0,5.0,65,0.00,,---,0.00,VWS V14.01,2013-03-15 01:44:00,
2013-03-14 18:49:00,65.8,54.5,30.02,SE,143,0.0,5.0,67,0.00,,---,0.00,VWS V14.01,2013-03-15 01:49:00,
2013-03-14 18:54:00,65.0,54.6,30.02,NW,318,1.0,5.0,69,0.00,,---,0.00,VWS V14.01,2013-03-15 01:54:00,
2013-03-14 18:59:00,64.8,54.8,30.02,SSW,208,0.0,5.0,70,0.00,,---,0.00,VWS V14.01,2013-03-15 01:59:00,
2013-03-14 19:04:00,64.2,54.6,30.02,SW,231,0.0,1.0,71,0.00,,---,0.00,VWS V14.01,2013-03-15 02:04:00,
2013-03-14 19:09:00,63.6,54.4,30.02,SW,224,0.0,1.0,72,0.00,,---,0.00,VWS V14.01,2013-03-15 02:09:00,
2013-03-14 19:14:00,62.9,54.5,30.02,WSW,240,0.0,1.0,74,0.00,,---,0.00,VWS V14.01,2013-03-15 02:14:00,
2013-03-14 19:19:00,62.6,54.6,30.03,WSW,240,0.0,1.0,75,0.00,,---,0.00,VWS V14.01,2013-03-15 02:19:00,
2013-03-14 19:24:00,62.3,54.3,30.03,WSW,240,0.0,1.0,75,0.00,,---,0.00,VWS V14.01,2013-03-15 02:24:00,
2013-03-14 19:29:00,61.9,54.3,30.03,WSW,240,0.0,1.0,76,0.00,,---,0.00,VWS V14.01,2013-03-15 02:29:00,
2013-03-14 19:34:00,61.5,53.9,30.03,SW,221,0.0,1.0,76,0.00,,---,0.00,VWS V14.01,2013-03-15 02:34:00,
2013-03-14 19:39:00,61.2,53.9,30.03,WNW,285,0.0,2.0,77,0.00,,---,0.00,VWS V14.01,2013-03-15 02:39:00,
2013-03-14 19:44:00,61.1,53.8,30.03,West,267,0.0,2.0,77,0.00,,---,0.00,VWS V14.01,2013-03-15 02:44:00,
2013-03-14 19:49:00,60.3,53.4,30.03,WSW,257,0.0,2.0,78,0.00,,---,0.00,VWS V14.01,2013-03-15 02:49:00,
2013-03-14 19:54:00,59.5,53.3,30.03,WSW,257,0.0,2.0,80,0.00,,---,0.00,VWS V14.01,2013-03-15 02:54:00,
2013-03-14 19:59:00,59.0,53.2,30.04,WSW,257,0.0,2.0,81,0.00,,---,0.00,VWS V14.01,2013-03-15 02:59:00,
2013-03-14 20:04:00,58.7,53.2,30.03,WSW,257,0.0,0.0,82,0.00,,---,0.00,VWS V14.01,2013-03-15 03:04:00,
2013-03-14 20:09:00,58.4,53.3,30.03,WSW,257,0.0,0.0,83,0.00,,---,0.00,VWS V14.01,2013-03-15 03:09:00,
2013-03-14 20:14:00,58.3,53.5,30.03,WSW,257,0.0,0.0,84,0.00,,---,0.00,VWS V14.01,2013-03-15 03:14:00,
2013-03-14 20:19:00,58.4,53.6,30.03,WSW,257,0.0,1.0,84,0.00,,---,0.00,VWS V14.01,2013-03-15 03:19:00,
2013-03-14 20:24:00,58.3,53.5,30.04,WSW,257,0.0,1.0,84,0.00,,---,0.00,VWS V14.01,2013-03-15 03:24:00,
2013-03-14 20:29:00,58.2,53.4,30.03,WSW,256,0.0,1.0,84,0.00,,---,0.00,VWS V14.01,2013-03-15 03:29:00,
2013-03-14 20:34:00,57.6,52.5,30.04,WSW,256,0.0,1.0,83,0.00,,---,0.00,VWS V14.01,2013-03-15 03:34:00,
2013-03-14 20:39:00,57.1,52.3,30.04,WSW,256,0.0,1.0,84,0.00,,---,0.00,VWS V14.01,2013-03-15 03:39:00,
2013-03-14 20:44:00,56.8,52.3,30.04,WSW,256,0.0,1.0,85,0.00,,---,0.00,VWS V14.01,2013-03-15 03:44:00,
2013-03-14 20:49:00,56.6,52.5,30.04,WSW,256,0.0,1.0,86,0.00,,---,0.00,VWS V14.01,2013-03-15 03:49:00,
2013-03-14 20:54:00,56.4,52.6,30.04,WSW,256,0.0,1.0,87,0.00,,---,0.00,VWS V14.01,2013-03-15 03:54:00,
2013-03-14 20:59:00,56.2,52.4,30.05,WSW,256,0.0,1.0,87,0.00,,---,0.00,VWS V14.01,2013-03-15 03:59:00,
2013-03-14 21:00:00,56.1,52.3,30.05,WSW,256,0.0,1.0,87,0.00,,---,0.00,VWS V14.01,2013-03-15 04:00:00,
2013-03-14 21:05:00,55.9,52.4,30.05,WSW,256,0.0,0.0,88,0.00,,---,0.00,VWS V14.01,2013-03-15 04:05:00,
2013-03-14 21:10:00,56.0,52.5,30.05,WSW,255,0.0,2.0,88,0.00,,---,0.00,VWS V14.01,2013-03-15 04:10:00,
2013-03-14 21:15:00,55.7,52.2,30.06,SW,215,0.0,2.0,88,0.00,,---,0.00,VWS V14.01,2013-03-15 04:15:00,
2013-03-14 21:20:00,55.4,52.2,30.06,West,259,2.0,2.0,89,0.00,,---,0.00,VWS V14.01,2013-03-15 04:20:00,
2013-03-14 21:25:00,55.7,52.8,30.06,SW,236,2.0,4.0,90,0.00,,---,0.00,VWS V14.01,2013-03-15 04:25:00,
2013-03-14 21:30:00,55.7,52.8,30.06,SE,139,0.0,4.0,90,0.00,,---,0.00,VWS V14.01,2013-03-15 04:30:00,
2013-03-14 21:35:00,55.5,52.6,30.06,SE,142,1.0,4.0,90,0.00,,---,0.00,VWS V14.01,2013-03-15 04:35:00,
2013-03-14 21:40:00,55.3,52.4,30.06,ESE,105,0.0,4.0,90,0.00,,---,0.00,VWS V14.01,2013-03-15 04:40:00,
2013-03-14 21:45:00,55.2,52.6,30.06,ESE,110,0.0,4.0,91,0.00,,---,0.00,VWS V14.01,2013-03-15 04:45:00,
2013-03-14 21:50:00,55.0,52.7,30.06,SE,133,1.0,4.0,92,0.00,,---,0.00,VWS V14.01,2013-03-15 04:50:00,
2013-03-14 21:55:00,54.7,52.7,30.07,SSE,149,1.0,4.0,93,0.00,,---,0.00,VWS V14.01,2013-03-15 04:55:00,
2013-03-14 22:00:00,54.5,52.5,30.07,SW,219,1.0,4.0,93,0.00,,---,0.00,VWS V14.01,2013-03-15 05:00:00,
2013-03-14 22:05:00,54.5,52.8,30.07,SSW,208,1.0,2.0,94,0.00,,---,0.00,VWS V14.01,2013-03-15 05:05:00,
2013-03-14 22:10:00,54.4,52.7,30.07,SW,219,3.0,3.0,94,0.00,,---,0.00,VWS V14.01,2013-03-15 05:10:00,
2013-03-14 22:15:00,54.3,52.9,30.07,SSW,205,2.0,3.0,95,0.00,,---,0.00,VWS V14.01,2013-03-15 05:15:00,
2013-03-14 22:20:00,54.3,52.9,30.07,SW,225,2.0,4.0,95,0.00,,---,0.00,VWS V14.01,2013-03-15 05:20:00,
2013-03-14 22:25:00,54.2,52.8,30.07,SW,222,2.0,6.0,95,0.00,,---,0.00,VWS V14.01,2013-03-15 05:25:00,
2013-03-14 22:30:00,54.2,52.8,30.07,SSW,200,0.0,6.0,95,0.00,,---,0.00,VWS V14.01,2013-03-15 05:30:00,
2013-03-14 22:35:00,54.2,53.1,30.07,SW,222,1.0,6.0,96,0.00,,---,0.00,VWS V14.01,2013-03-15 05:35:00,
2013-03-14 22:40:00,54.3,53.2,30.07,West,267,2.0,6.0,96,0.00,,---,0.00,VWS V14.01,2013-03-15 05:40:00,
2013-03-14 22:45:00,54.3,53.2,30.07,WSW,250,3.0,6.0,96,0.00,,---,0.00,VWS V14.01,2013-03-15 05:45:00,
2013-03-14 22:50:00,54.2,53.1,30.07,SW,219,2.0,6.0,96,0.00,,---,0.00,VWS V14.01,2013-03-15 05:50:00,
2013-03-14 22:55:00,54.2,53.1,30.07,SSE,153,0.0,6.0,96,0.00,,---,0.00,VWS V14.01,2013-03-15 05:55:00,
2013-03-14 23:00:00,54.2,53.1,30.07,SW,221,1.0,6.0,96,0.00,,---,0.00,VWS V14.01,2013-03-15 06:00:00,
2013-03-14 23:05:00,54.1,53.0,30.07,SW,214,2.0,3.0,96,0.00,,---,0.00,VWS V14.01,2013-03-15 06:05:00,
2013-03-14 23:10:00,54.0,52.9,30.07,SW,226,0.0,3.0,96,0.00,,---,0.00,VWS V14.01,2013-03-15 06:10:00,
2013-03-14 23:15:00,53.9,52.8,30.07,SW,236,0.0,3.0,96,0.00,,---,0.00,VWS V14.01,2013-03-15 06:15:00,
2013-03-14 23:20:00,53.7,52.6,30.07,NW,311,2.0,3.0,96,0.00,,---,0.00,VWS V14.01,2013-03-15 06:20:00,
2013-03-14 23:25:00,53.5,52.4,30.07,NW,304,1.0,3.0,96,0.00,,---,0.00,VWS V14.01,2013-03-15 06:25:00,
2013-03-14 23:30:00,53.3,52.2,30.07,NW,307,2.0,3.0,96,0.00,,---,0.00,VWS V14.01,2013-03-15 06:30:00,
2013-03-14 23:35:00,53.2,52.1,30.07,WNW,301,0.0,3.0,96,0.00,,---,0.00,VWS V14.01,2013-03-15 06:35:00,
2013-03-14 23:40:00,53.1,52.0,30.07,SW,226,0.0,3.0,96,0.00,,---,0.00,VWS V14.01,2013-03-15 06:40:00,
2013-03-14 23:45:00,53.1,52.3,30.07,SW,229,0.0,3.0,97,0.00,,---,0.00,VWS V14.01,2013-03-15 06:45:00,
2013-03-14 23:50:00,53.2,52.4,30.07,WSW,238,0.0,3.0,97,0.00,,---,0.00,VWS V14.01,2013-03-15 06:50:00,
2013-03-14 23:55:00,53.4,52.6,30.07,WNW,297,1.0,3.0,97,0.00,,---,0.00,VWS V14.01,2013-03-15 06:55:00,